createdAt,value
2022-12-17T00:00:24.552Z,0.42
2022-12-17T00:03:48.046Z,0.32
2022-12-17T00:07:09.493Z,0.44
2022-12-17T00:10:29.822Z,0.50
2022-12-17T00:13:50.013Z,0.63
2022-12-17T00:17:11.748Z,0.47
2022-12-17T00:20:32.000Z,0.55
2022-12-17T00:23:53.630Z,0.54
2022-12-17T00:27:16.789Z,0.48
2022-12-17T00:30:37.042Z,0.52
2022-12-17T00:33:57.384Z,0.50
2022-12-17T00:37:18.200Z,0.68
2022-12-17T00:40:39.782Z,0.67
2022-12-17T00:43:59.916Z,0.70
2022-12-17T00:47:20.185Z,0.59
2022-12-17T00:50:36.733Z,0.74
2022-12-17T00:53:56.989Z,0.71
2022-12-17T00:57:18.571Z,0.67
2022-12-17T01:00:50.289Z,0.72
2022-12-17T01:04:10.488Z,0.74
2022-12-17T01:07:30.759Z,0.77
2022-12-17T01:10:50.966Z,0.77
2022-12-17T01:14:12.569Z,0.72
2022-12-17T01:17:32.821Z,0.80
2022-12-17T01:20:53.212Z,0.66
2022-12-17T01:24:14.152Z,0.67
2022-12-17T01:27:34.308Z,0.67
2022-12-17T01:30:56.828Z,0.71
2022-12-17T01:34:17.080Z,0.58
2022-12-17T01:37:37.154Z,0.65
2022-12-17T01:40:57.357Z,0.61
2022-12-17T01:44:17.703Z,0.59
2022-12-17T01:47:39.484Z,0.66
2022-12-17T01:51:02.784Z,0.57
2022-12-17T01:54:23.459Z,0.62
2022-12-17T01:57:44.204Z,0.56
2022-12-17T02:01:04.576Z,0.64
2022-12-17T02:04:27.605Z,0.74
2022-12-17T02:08:01.990Z,0.62
2022-12-17T02:11:33.841Z,0.75
2022-12-17T02:15:00.363Z,0.66
2022-12-17T02:18:26.964Z,0.71
2022-12-17T02:21:51.085Z,0.69
2022-12-17T02:25:31.781Z,0.82
2022-12-17T02:28:59.918Z,0.73
2022-12-17T02:32:21.117Z,0.70
2022-12-17T02:35:45.853Z,0.70
2022-12-17T02:39:06.115Z,0.62
2022-12-17T02:42:26.371Z,0.60
2022-12-17T02:45:48.046Z,0.68
2022-12-17T02:49:08.442Z,0.69
2022-12-17T02:52:34.788Z,0.68
2022-12-17T02:55:55.956Z,0.63
2022-12-17T02:59:21.633Z,0.65
2022-12-17T03:02:43.365Z,0.73
2022-12-17T03:06:03.594Z,0.66
2022-12-17T03:09:23.951Z,0.58
2022-12-17T03:12:44.141Z,0.51
2022-12-17T03:16:04.442Z,0.38
2022-12-17T03:19:27.334Z,0.29
2022-12-17T03:22:47.727Z,0.29
2022-12-17T03:26:08.060Z,0.13
2022-12-17T03:29:28.328Z,0.16
2022-12-17T03:32:48.563Z,0.09
2022-12-17T03:36:12.948Z,0.20
2022-12-17T03:39:33.167Z,0.10
2022-12-17T03:42:53.461Z,0.09
2022-12-17T03:46:28.308Z,0.13
2022-12-17T03:49:48.315Z,0.08
2022-12-17T03:53:09.994Z,-0.06
2022-12-17T03:56:30.396Z,-0.10
2022-12-17T03:59:50.443Z,-0.13
2022-12-17T04:03:11.183Z,-0.04
2022-12-17T04:06:31.409Z,-0.12
2022-12-17T04:09:53.210Z,-0.13
2022-12-17T04:13:13.386Z,-0.25
2022-12-17T04:16:33.727Z,-0.25
2022-12-17T04:19:54.035Z,-0.28
2022-12-17T04:23:14.376Z,-0.23
2022-12-17T04:26:35.873Z,-0.43
2022-12-17T04:29:56.189Z,-0.51
2022-12-17T04:33:16.410Z,-0.60
2022-12-17T04:36:36.798Z,-0.58
2022-12-17T04:39:56.982Z,-0.41
2022-12-17T04:43:25.643Z,-0.47
2022-12-17T04:46:45.981Z,-0.60
2022-12-17T04:50:06.208Z,-0.58
2022-12-17T04:53:26.482Z,-0.63
2022-12-17T04:56:46.745Z,-0.63
2022-12-17T05:00:08.370Z,-0.62
2022-12-17T05:03:30.726Z,-0.72
2022-12-17T05:06:51.041Z,-0.83
2022-12-17T05:10:11.344Z,-0.59
2022-12-17T05:13:31.650Z,-0.86
2022-12-17T05:16:53.027Z,-0.83
2022-12-17T05:20:13.365Z,-0.84
2022-12-17T05:23:33.897Z,-0.75
2022-12-17T05:26:54.469Z,-0.97
2022-12-17T05:30:17.264Z,-1.12
2022-12-17T05:33:39.191Z,-1.03
2022-12-17T05:36:59.724Z,-1.12
2022-12-17T05:40:20.004Z,-1.14
2022-12-17T05:43:40.022Z,-1.20
2022-12-17T05:47:00.318Z,-1.11
2022-12-17T05:50:22.742Z,-1.08
2022-12-17T05:53:39.470Z,-1.09
2022-12-17T05:56:59.889Z,-1.01
2022-12-17T06:00:20.249Z,-1.05
2022-12-17T06:03:40.905Z,-1.19
2022-12-17T06:07:02.772Z,-1.22
2022-12-17T06:10:23.611Z,-1.13
2022-12-17T06:13:43.888Z,-1.30
2022-12-17T06:17:04.041Z,-1.25
2022-12-17T06:20:27.019Z,-1.23
2022-12-17T06:23:48.445Z,-1.11
2022-12-17T06:27:08.883Z,-1.17
2022-12-17T06:30:26.321Z,-1.04
2022-12-17T06:33:46.497Z,-1.21
2022-12-17T06:37:06.761Z,-1.13
2022-12-17T06:40:29.564Z,-1.17
2022-12-17T06:43:49.809Z,-1.18
2022-12-17T06:47:10.189Z,-1.00
2022-12-17T06:50:30.508Z,-0.91
2022-12-17T06:53:50.847Z,-1.23
2022-12-17T06:57:23.752Z,-1.19
2022-12-17T07:00:44.551Z,-1.16
2022-12-17T07:04:05.016Z,-1.13
2022-12-17T07:07:25.313Z,-1.08
2022-12-17T07:10:45.603Z,-1.14
2022-12-17T07:14:07.451Z,-1.15
2022-12-17T07:17:27.657Z,-1.14
2022-12-17T07:20:47.830Z,-1.13
2022-12-17T07:24:08.063Z,-1.21
2022-12-17T07:27:28.316Z,-1.26
2022-12-17T07:30:55.508Z,-1.20
2022-12-17T07:34:15.899Z,-1.03
2022-12-17T07:37:36.208Z,-1.05
2022-12-17T07:40:56.384Z,-1.08
2022-12-17T07:44:17.568Z,-1.21
2022-12-17T07:47:39.113Z,-1.24
2022-12-17T07:50:59.409Z,-1.13
2022-12-17T07:54:19.667Z,-1.09
2022-12-17T07:57:40.066Z,-1.12
2022-12-17T08:01:00.304Z,-1.02
2022-12-17T08:04:21.845Z,-1.15
2022-12-17T08:07:42.096Z,-1.19
2022-12-17T08:11:07.416Z,-1.02
2022-12-17T08:14:27.672Z,-1.02
2022-12-17T08:17:47.921Z,-0.98
2022-12-17T08:21:09.417Z,-0.97
2022-12-17T08:24:29.733Z,-0.93
2022-12-17T08:27:49.872Z,-0.86
2022-12-17T08:31:10.217Z,-0.93
2022-12-17T08:34:30.521Z,-0.89
2022-12-17T08:38:03.466Z,-0.85
2022-12-17T08:41:23.492Z,-0.71
2022-12-17T08:44:43.669Z,-0.65
2022-12-17T08:48:04.448Z,-0.64
2022-12-17T08:51:36.255Z,-0.57
2022-12-17T08:54:57.847Z,-0.54
2022-12-17T08:58:18.174Z,-0.57
2022-12-17T09:01:38.419Z,-0.42
2022-12-17T09:04:58.349Z,-0.64
2022-12-17T09:08:21.328Z,-0.43
2022-12-17T09:11:42.761Z,-0.23
2022-12-17T09:15:03.250Z,-0.05
2022-12-17T09:18:23.607Z,0.03
2022-12-17T09:21:45.416Z,-0.22
2022-12-17T09:25:05.574Z,-0.03
2022-12-17T09:28:27.104Z,0.11
2022-12-17T09:31:48.275Z,0.08
2022-12-17T09:35:08.653Z,0.04
2022-12-17T09:38:30.983Z,0.28
2022-12-17T09:42:01.824Z,-0.15
2022-12-17T09:45:30.445Z,0.25
2022-12-17T09:48:58.942Z,0.29
2022-12-17T09:52:19.153Z,0.37
2022-12-17T09:55:44.063Z,0.06
2022-12-17T09:59:04.310Z,0.30
2022-12-17T10:02:32.195Z,0.41
2022-12-17T10:05:53.899Z,0.55
2022-12-17T10:09:16.649Z,0.57
2022-12-17T10:12:38.863Z,0.65
2022-12-17T10:16:00.275Z,0.36
2022-12-17T10:19:22.363Z,0.58
2022-12-17T10:22:42.660Z,0.72
2022-12-17T10:26:10.079Z,0.78
2022-12-17T10:29:45.704Z,0.61
2022-12-17T10:33:14.200Z,0.68
2022-12-17T10:36:42.650Z,0.52
2022-12-17T10:40:11.577Z,0.50
2022-12-17T10:43:42.536Z,0.82
2022-12-17T10:47:02.807Z,0.78
2022-12-17T10:50:27.509Z,0.92
2022-12-17T10:53:49.076Z,1.11
2022-12-17T10:57:20.112Z,1.40
2022-12-17T11:00:47.415Z,2.26
2022-12-17T11:04:11.725Z,2.21
2022-12-17T11:07:37.432Z,3.12
2022-12-17T11:11:01.434Z,4.30
2022-12-17T11:14:24.096Z,4.94
2022-12-17T11:17:45.034Z,4.45
2022-12-17T11:21:12.681Z,4.01
2022-12-17T11:24:41.016Z,3.60
2022-12-17T11:28:06.705Z,2.74
2022-12-17T11:31:50.642Z,2.50
2022-12-17T11:35:22.029Z,1.96
2022-12-17T11:38:51.634Z,1.98
2022-12-17T11:42:18.200Z,1.89
2022-12-17T11:45:48.234Z,1.66
2022-12-17T11:49:20.584Z,1.52
2022-12-17T11:52:52.570Z,1.77
2022-12-17T11:56:18.913Z,1.79
2022-12-17T11:59:52.514Z,1.65
2022-12-17T12:03:24.144Z,1.70
2022-12-17T12:06:54.556Z,1.64
2022-12-17T12:10:17.966Z,1.20
2022-12-17T12:13:56.294Z,1.39
2022-12-17T12:17:26.334Z,1.35
2022-12-17T12:21:03.602Z,1.10
2022-12-17T12:24:36.039Z,1.23
2022-12-17T12:28:03.993Z,0.98
2022-12-17T12:31:33.279Z,1.29
2022-12-17T12:34:55.986Z,1.38
2022-12-17T12:38:19.463Z,1.32
2022-12-17T12:41:48.282Z,1.07
2022-12-17T12:45:18.623Z,1.58
2022-12-17T12:49:05.123Z,2.27
2022-12-17T12:52:33.584Z,2.96
2022-12-17T12:55:59.503Z,3.29
2022-12-17T12:59:29.921Z,3.54
2022-12-17T13:02:51.520Z,3.70
2022-12-17T13:05:55.330Z,3.48
2022-12-17T13:09:06.045Z,3.03
2022-12-17T13:12:25.353Z,2.89
2022-12-17T13:15:37.116Z,2.62
2022-12-17T13:18:40.760Z,2.53
2022-12-17T13:21:43.850Z,2.62
2022-12-17T13:24:48.170Z,2.18
2022-12-17T13:27:52.195Z,2.29
2022-12-17T13:31:18.700Z,2.36
2022-12-17T13:34:27.041Z,2.34
2022-12-17T13:37:41.345Z,2.40
2022-12-17T13:40:47.579Z,2.41
2022-12-17T13:43:54.309Z,2.53
2022-12-17T13:46:56.966Z,2.32
2022-12-17T13:50:32.804Z,2.34
2022-12-17T13:53:24.180Z,2.40
2022-12-17T13:56:29.239Z,2.39
2022-12-17T13:59:33.195Z,2.44
2022-12-17T14:02:39.264Z,2.47
2022-12-17T14:05:45.929Z,2.48
2022-12-17T14:08:50.607Z,2.42
2022-12-17T14:12:11.291Z,2.42
2022-12-17T14:15:24.252Z,2.42
2022-12-17T14:18:26.940Z,2.45
2022-12-17T14:21:30.474Z,2.36
2022-12-17T14:24:33.775Z,2.28
2022-12-17T14:27:37.625Z,2.28
2022-12-17T14:31:09.678Z,2.40
2022-12-17T14:34:08.738Z,2.25
2022-12-17T14:37:18.418Z,2.24
2022-12-17T14:40:21.162Z,2.20
2022-12-17T14:43:29.917Z,2.03
2022-12-17T14:46:35.847Z,1.93
2022-12-17T14:49:50.897Z,1.95
2022-12-17T14:52:59.969Z,1.96
2022-12-17T14:56:02.583Z,1.84
2022-12-17T14:59:05.143Z,1.77
2022-12-17T15:02:20.761Z,1.89
2022-12-17T15:05:23.508Z,1.91
2022-12-17T15:08:26.368Z,1.80
2022-12-17T15:11:28.936Z,1.52
2022-12-17T15:14:31.487Z,1.60
2022-12-17T15:17:35.414Z,1.67
2022-12-17T15:20:38.329Z,1.70
2022-12-17T15:23:44.000Z,1.80
2022-12-17T15:26:46.974Z,1.73
2022-12-17T15:29:49.541Z,1.74
2022-12-17T15:32:53.515Z,1.55
2022-12-17T15:35:58.662Z,1.56
2022-12-17T15:39:01.373Z,1.49
2022-12-17T15:42:21.340Z,1.50
2022-12-17T15:45:26.803Z,1.50
2022-12-17T15:48:31.168Z,1.42
2022-12-17T15:51:33.769Z,1.44
2022-12-17T15:54:36.333Z,1.50
2022-12-17T15:57:38.909Z,1.27
2022-12-17T16:00:41.514Z,1.22
2022-12-17T16:03:45.556Z,1.33
2022-12-17T16:06:48.192Z,1.31
2022-12-17T16:09:50.816Z,1.31
2022-12-17T16:12:53.375Z,1.36
2022-12-17T16:16:02.124Z,1.18
2022-12-17T16:19:07.726Z,1.11
2022-12-17T16:22:10.325Z,1.22
2022-12-17T16:25:13.276Z,1.11
2022-12-17T16:28:15.845Z,1.07
2022-12-17T16:31:18.481Z,1.19
2022-12-17T16:34:22.498Z,1.02
2022-12-17T16:37:25.071Z,1.00
2022-12-17T16:40:28.134Z,1.00
2022-12-17T16:43:35.200Z,1.00
2022-12-17T16:46:39.909Z,0.95
2022-12-17T16:49:43.905Z,1.01
2022-12-17T16:52:47.519Z,0.98
2022-12-17T16:55:50.844Z,0.93
2022-12-17T16:58:53.496Z,0.97
2022-12-17T17:01:57.073Z,1.00
2022-12-17T17:05:01.166Z,0.93
2022-12-17T17:08:03.850Z,0.92
2022-12-17T17:11:11.945Z,1.00
2022-12-17T17:14:14.551Z,0.91
2022-12-17T17:17:17.129Z,0.98
2022-12-17T17:20:21.097Z,0.78
2022-12-17T17:23:23.661Z,0.82
2022-12-17T17:26:27.008Z,0.77
2022-12-17T17:29:29.609Z,0.69
2022-12-17T17:32:32.251Z,0.69
2022-12-17T17:35:36.198Z,0.76
2022-12-17T17:38:40.924Z,0.73
2022-12-17T17:41:43.673Z,0.70
2022-12-17T17:44:46.233Z,0.74
2022-12-17T17:47:48.828Z,0.62
2022-12-17T17:51:04.201Z,0.69
2022-12-17T17:54:12.563Z,0.61
2022-12-17T17:57:16.870Z,0.52
2022-12-17T18:00:19.627Z,0.63
2022-12-17T18:03:22.256Z,0.65
2022-12-17T18:06:27.366Z,0.55
2022-12-17T18:09:30.009Z,0.53
2022-12-17T18:12:50.275Z,0.51
2022-12-17T18:15:52.866Z,0.53
2022-12-17T18:18:56.785Z,0.53
2022-12-17T18:22:00.726Z,0.59
2022-12-17T18:25:03.449Z,0.45
2022-12-17T18:28:06.060Z,0.53
2022-12-17T18:31:10.807Z,0.47
2022-12-17T18:34:14.780Z,0.47
2022-12-17T18:37:18.757Z,0.32
2022-12-17T18:40:21.358Z,0.51
2022-12-17T18:43:25.944Z,0.48
2022-12-17T18:46:28.678Z,0.47
2022-12-17T18:49:31.280Z,0.37
2022-12-17T18:52:35.234Z,0.38
2022-12-17T18:55:40.378Z,0.29
2022-12-17T18:58:43.598Z,0.23
2022-12-17T19:01:46.993Z,0.20
2022-12-17T19:04:49.751Z,0.20
2022-12-17T19:07:53.701Z,0.28
2022-12-17T19:10:56.264Z,0.29
2022-12-17T19:13:59.067Z,0.14
2022-12-17T19:17:01.889Z,0.09
2022-12-17T19:20:04.998Z,0.03
2022-12-17T19:23:08.949Z,0.18
2022-12-17T19:26:14.015Z,0.29
2022-12-17T19:29:18.864Z,0.18
2022-12-17T19:32:21.467Z,0.19
2022-12-17T19:35:24.062Z,0.08
2022-12-17T19:38:28.093Z,0.03
2022-12-17T19:41:31.929Z,-0.02
2022-12-17T19:44:34.495Z,0.07
2022-12-17T19:47:37.076Z,0.00
2022-12-17T19:50:39.633Z,0.10
2022-12-17T19:53:45.045Z,0.19
2022-12-17T19:56:47.654Z,0.16
2022-12-17T19:59:50.216Z,0.07
2022-12-17T20:02:52.995Z,-0.09
2022-12-17T20:05:55.863Z,0.00
2022-12-17T20:09:00.522Z,-0.06
2022-12-17T20:12:03.145Z,-0.06
2022-12-17T20:15:06.587Z,-0.10
2022-12-17T20:18:09.197Z,-0.06
2022-12-17T20:21:11.771Z,-0.22
2022-12-17T20:24:16.579Z,-0.10
2022-12-17T20:27:19.623Z,-0.05
2022-12-17T20:30:25.238Z,-0.14
2022-12-17T20:33:27.848Z,-0.24
2022-12-17T20:36:30.507Z,-0.18
2022-12-17T20:39:34.546Z,-0.11
2022-12-17T20:42:37.226Z,-0.43
2022-12-17T20:45:39.925Z,-0.31
2022-12-17T20:48:44.094Z,-0.48
2022-12-17T20:51:46.702Z,-0.37
2022-12-17T20:54:50.612Z,-0.35
2022-12-17T20:57:53.357Z,-0.33
2022-12-17T21:01:04.096Z,-0.41
2022-12-17T21:04:07.413Z,-0.48
2022-12-17T21:07:10.036Z,-0.42
2022-12-17T21:10:14.150Z,-0.57
2022-12-17T21:13:32.024Z,-0.55
2022-12-17T21:16:35.027Z,-0.51
2022-12-17T21:19:37.966Z,-0.66
2022-12-17T21:22:41.529Z,-0.74
2022-12-17T21:25:45.446Z,-0.69
2022-12-17T21:28:49.899Z,-0.67
2022-12-17T21:31:53.371Z,-0.77
2022-12-17T21:34:56.055Z,-0.71
2022-12-17T21:37:58.657Z,-0.66
2022-12-17T21:41:07.568Z,-0.73
2022-12-17T21:44:13.917Z,-0.74
2022-12-17T21:47:18.161Z,-0.79
2022-12-17T21:50:20.777Z,-0.81
2022-12-17T21:53:24.155Z,-0.78
2022-12-17T21:56:30.731Z,-0.78
2022-12-17T21:59:33.320Z,-0.88
2022-12-17T22:02:36.042Z,-0.85
2022-12-17T22:05:39.328Z,-0.78
2022-12-17T22:08:43.029Z,-0.74
2022-12-17T22:11:47.437Z,-0.81
2022-12-17T22:14:49.378Z,-0.84
2022-12-17T22:17:53.607Z,-0.81
2022-12-17T22:20:58.141Z,-0.96
2022-12-17T22:24:00.730Z,-0.84
2022-12-17T22:27:09.459Z,-0.85
2022-12-17T22:30:33.213Z,-0.72
2022-12-17T22:34:16.676Z,-0.89
2022-12-17T22:40:37.273Z,-0.86
2022-12-17T22:44:15.006Z,-0.81
2022-12-17T22:44:43.046Z,-0.84
2022-12-17T22:47:07.615Z,-0.90
2022-12-17T22:50:10.989Z,-0.92
2022-12-17T22:53:14.152Z,-0.77
2022-12-17T22:56:49.459Z,-0.93
2022-12-17T22:59:41.663Z,-0.91
2022-12-17T23:02:44.344Z,-1.03
2022-12-17T23:05:47.159Z,-0.91
2022-12-17T23:08:49.801Z,-0.85
2022-12-17T23:11:52.377Z,-1.03
2022-12-17T23:14:56.299Z,-0.96
2022-12-17T23:18:01.373Z,-0.94
2022-12-17T23:21:08.587Z,-0.91
2022-12-17T23:24:11.279Z,-0.97
2022-12-17T23:27:13.879Z,-1.07
2022-12-17T23:30:18.525Z,-1.07
2022-12-17T23:33:21.199Z,-0.98
2022-12-17T23:36:25.817Z,-1.04
2022-12-17T23:39:28.414Z,-0.94
2022-12-17T23:42:31.102Z,-0.99
2022-12-17T23:45:35.037Z,-0.99
2022-12-17T23:48:45.360Z,-0.95
2022-12-17T23:51:48.478Z,-0.96
2022-12-17T23:54:51.036Z,-1.01
2022-12-17T23:57:56.629Z,-1.15
